Time;durP1;ratioP1;P1;durP2;ratioP2;P2;SDS_P1;SDS_P2;PMS_P1;PMS_P2;Temp;Humidity;BMP_temperature;BMP_pressure;BME280_temperature;BME280_humidity;BME280_pressure;Samples;Min_cycle;Max_cycle;Signal;HPM_P1;HPM_P2
2022/10/11 00:01:43;;;;;;;20.90;11.35;;;;;;;;;;5029952;28;20509;-77
2022/10/11 00:04:09;;;;;;;16.45;10.38;;;;;;;;;;5011990;28;20048;-78
2022/10/11 00:06:36;;;;;;;18.90;11.60;;;;;;;;;;5011606;28;20132;-79
2022/10/11 00:09:05;;;;;;;23.10;11.05;;;;;;;;;;5012005;28;20025;-78
2022/10/11 00:11:31;;;;;;;23.40;11.20;;;;;;;;;;5011584;28;20689;-78
2022/10/11 00:13:57;;;;;;;20.98;11.93;;;;;;;;;;5011941;28;20034;-78
2022/10/11 00:16:23;;;;;;;25.17;10.40;;;;;;;;;;5011765;28;20036;-78
2022/10/11 00:18:50;;;;;;;24.95;11.35;;;;;;;;;;5012078;28;20029;-77
2022/10/11 00:21:15;;;;;;;24.48;11.65;;;;;;;;;;5029659;28;20243;-78
2022/10/11 00:23:42;;;;;;;16.55;11.32;;;;;;;;;;5011865;28;20119;-78
2022/10/11 00:26:09;;;;;;;22.50;11.38;;;;;;;;;;5011995;28;20124;-77
2022/10/11 00:28:36;;;;;;;17.27;10.80;;;;;;;;;;5013068;28;20031;-77
2022/10/11 00:31:06;;;;;;;22.23;11.07;;;;;;;;;;5012452;28;20037;-78
2022/10/11 00:33:32;;;;;;;20.67;10.15;;;;;;;;;;5012460;28;20041;-78
2022/10/11 00:35:59;;;;;;;21.60;11.15;;;;;;;;;;5012268;28;20508;-78
2022/10/11 00:38:24;;;;;;;20.20;10.35;;;;;;;;;;5011483;28;20029;-78
2022/10/11 00:40:50;;;;;;;19.65;11.45;;;;;;;;;;5029984;28;20036;-78
2022/10/11 00:43:18;;;;;;;20.50;11.68;;;;;;;;;;5011627;28;20547;-79
2022/10/11 00:45:55;;;;;;;20.63;11.00;;;;;;;;;;5029755;28;20047;-78
2022/10/11 00:48:26;;;;;;;21.20;10.75;;;;;;;;;;5029582;28;20362;-78
2022/10/11 00:50:54;;;;;;;23.85;10.88;;;;;;;;;;5029569;28;20049;-78
2022/10/11 00:53:21;;;;;;;21.63;12.07;;;;;;;;;;5029663;28;20025;-78
2022/10/11 00:55:55;;;;;;;29.23;11.63;;;;;;;;;;5029978;28;20044;-78
2022/10/11 00:58:22;;;;;;;27.48;11.80;;;;;;;;;;5011390;28;20025;-77
2022/10/11 01:00:48;;;;;;;19.45;11.02;;;;;;;;;;5012154;28;20037;-77
2022/10/11 01:03:16;;;;;;;20.98;10.93;;;;;;;;;;5015025;28;20080;-76
2022/10/11 01:05:43;;;;;;;23.17;12.35;;;;;;;;;;5014893;28;20470;-77
2022/10/11 01:08:08;;;;;;;25.13;12.18;;;;;;;;;;5015334;28;20025;-77
2022/10/11 01:10:34;;;;;;;21.25;12.65;;;;;;;;;;5015088;28;20028;-77
2022/10/11 01:13:24;;;;;;;23.85;12.70;;;;;;;;;;5033183;28;20496;-77
2022/10/11 01:16:15;;;;;;;20.73;12.00;;;;;;;;;;5033060;28;20713;-78
2022/10/11 01:18:48;;;;;;;25.48;12.13;;;;;;;;;;5014831;28;20033;-77
2022/10/11 01:21:45;;;;;;;27.17;12.23;;;;;;;;;;5032628;28;20470;-77
2022/10/11 01:24:49;;;;;;;22.83;12.27;;;;;;;;;;5032010;28;20060;-77
2022/10/11 01:27:45;;;;;;;19.67;11.85;;;;;;;;;;4989321;28;20046;-77
2022/10/11 01:30:24;;;;;;;21.00;12.35;;;;;;;;;;4995160;28;20030;-78
2022/10/11 01:33:25;;;;;;;17.73;10.60;;;;;;;;;;4995033;28;20039;-78
2022/10/11 01:36:02;;;;;;;21.35;11.70;;;;;;;;;;4995406;28;20045;-78
2022/10/11 01:38:46;;;;;;;19.42;11.60;;;;;;;;;;4994901;28;20040;-78
2022/10/11 01:41:23;;;;;;;22.63;11.63;;;;;;;;;;4994886;28;20036;-78
2022/10/11 01:43:52;;;;;;;18.65;12.35;;;;;;;;;;4995213;28;20029;-78
2022/10/11 01:46:18;;;;;;;23.58;11.55;;;;;;;;;;5012514;28;20053;-77
2022/10/11 01:48:52;;;;;;;23.55;11.88;;;;;;;;;;4995076;28;20044;-78
2022/10/11 01:51:24;;;;;;;20.60;12.70;;;;;;;;;;5012516;28;20061;-77
2022/10/11 01:54:08;;;;;;;21.23;12.20;;;;;;;;;;5012899;28;20037;-79
2022/10/11 01:57:11;;;;;;;20.45;12.60;;;;;;;;;;4994839;28;20112;-79
2022/10/11 02:00:17;;;;;;;26.08;11.82;;;;;;;;;;4994700;28;20042;-78
2022/10/11 02:03:10;;;;;;;20.80;11.13;;;;;;;;;;5012318;28;20030;-77
2022/10/11 02:05:41;;;;;;;18.00;10.90;;;;;;;;;;4994542;28;20428;-77
2022/10/11 02:08:39;;;;;;;22.90;11.65;;;;;;;;;;4993999;28;20026;-77
2022/10/11 02:11:11;;;;;;;19.40;11.07;;;;;;;;;;4967343;28;20483;-77
2022/10/11 02:13:43;;;;;;;16.95;10.20;;;;;;;;;;5011017;28;20038;-78
2022/10/11 02:16:14;;;;;;;21.55;11.55;;;;;;;;;;5011878;28;20026;-77
2022/10/11 02:18:45;;;;;;;23.13;11.80;;;;;;;;;;5012139;28;20035;-78
2022/10/11 02:21:15;;;;;;;26.45;12.07;;;;;;;;;;4994388;28;20530;-78
2022/10/11 02:23:50;;;;;;;19.58;11.85;;;;;;;;;;5011706;28;20026;-78
2022/10/11 02:26:17;;;;;;;27.58;12.35;;;;;;;;;;5011838;28;20425;-77
2022/10/11 02:28:45;;;;;;;22.33;11.35;;;;;;;;;;5013519;28;20029;-77
2022/10/11 02:31:11;;;;;;;23.58;12.35;;;;;;;;;;5013739;28;20025;-78
2022/10/11 02:33:46;;;;;;;20.02;11.75;;;;;;;;;;5013440;28;20048;-77
2022/10/11 02:36:25;;;;;;;21.85;11.00;;;;;;;;;;5013892;28;20036;-77
2022/10/11 02:38:55;;;;;;;19.52;10.98;;;;;;;;;;4998613;28;20033;-78
2022/10/11 02:41:42;;;;;;;21.98;10.90;;;;;;;;;;5032629;28;20033;-78
2022/10/11 02:44:31;;;;;;;20.55;10.90;;;;;;;;;;5032881;28;20710;-78
2022/10/11 02:46:59;;;;;;;20.45;11.88;;;;;;;;;;5031236;28;20035;-78
2022/10/11 02:49:27;;;;;;;21.85;10.98;;;;;;;;;;5031152;28;20100;-78
2022/10/11 02:51:55;;;;;;;21.50;10.43;;;;;;;;;;5031031;28;20045;-78
2022/10/11 02:54:21;;;;;;;22.40;12.32;;;;;;;;;;5013273;28;20565;-79
2022/10/11 02:56:46;;;;;;;22.98;11.38;;;;;;;;;;5013940;28;20105;-77
2022/10/11 02:59:12;;;;;;;22.55;11.65;;;;;;;;;;5013504;28;20082;-78
2022/10/11 03:01:38;;;;;;;17.02;10.75;;;;;;;;;;5013438;28;20040;-78
2022/10/11 03:04:03;;;;;;;20.05;11.25;;;;;;;;;;5013469;28;20088;-77
2022/10/11 03:06:29;;;;;;;19.48;11.32;;;;;;;;;;5013315;28;20037;-78
2022/10/11 03:08:54;;;;;;;22.77;11.65;;;;;;;;;;5031561;28;20683;-78
2022/10/11 03:11:19;;;;;;;28.25;12.35;;;;;;;;;;5032302;28;20477;-79
2022/10/11 03:13:45;;;;;;;19.33;11.93;;;;;;;;;;5013893;28;20036;-77
2022/10/11 03:16:10;;;;;;;26.23;11.98;;;;;;;;;;5014104;28;20037;-78
2022/10/11 03:18:36;;;;;;;26.40;11.98;;;;;;;;;;5031034;28;20097;-78
2022/10/11 03:21:01;;;;;;;33.83;14.25;;;;;;;;;;5013140;28;20073;-79
2022/10/11 03:23:27;;;;;;;25.90;11.70;;;;;;;;;;5012882;28;20037;-78
2022/10/11 03:25:52;;;;;;;28.45;12.98;;;;;;;;;;5015336;28;20485;-78
2022/10/11 03:28:18;;;;;;;29.20;12.70;;;;;;;;;;5011133;28;20727;-79
2022/10/11 03:30:49;;;;;;;23.75;12.45;;;;;;;;;;4993376;28;20128;-79
2022/10/11 03:33:16;;;;;;;26.30;11.73;;;;;;;;;;5008795;28;20382;-78
2022/10/11 03:35:44;;;;;;;28.50;11.93;;;;;;;;;;5012505;28;20029;-77
2022/10/11 03:38:13;;;;;;;24.15;13.85;;;;;;;;;;5012422;28;20117;-79
2022/10/11 03:40:39;;;;;;;21.38;11.98;;;;;;;;;;5012491;28;20033;-78
2022/10/11 03:43:04;;;;;;;21.45;12.68;;;;;;;;;;5012242;28;20036;-78
2022/10/11 03:45:30;;;;;;;29.00;13.27;;;;;;;;;;5029950;28;20021;-78
2022/10/11 03:47:55;;;;;;;21.58;12.45;;;;;;;;;;5012500;28;20032;-77
2022/10/11 03:50:21;;;;;;;25.80;13.05;;;;;;;;;;5012068;28;20073;-78
2022/10/11 03:52:46;;;;;;;26.15;14.88;;;;;;;;;;5029687;28;20026;-78
2022/10/11 03:55:12;;;;;;;25.33;13.52;;;;;;;;;;5030026;28;20072;-77
2022/10/11 03:57:38;;;;;;;22.80;11.55;;;;;;;;;;5029548;28;20056;-78
2022/10/11 04:00:05;;;;;;;24.92;12.23;;;;;;;;;;5012124;28;20026;-78
2022/10/11 04:02:30;;;;;;;25.83;12.25;;;;;;;;;;5011764;28;20025;-79
2022/10/11 04:04:56;;;;;;;23.48;12.45;;;;;;;;;;5011266;28;20083;-79
2022/10/11 04:07:21;;;;;;;28.75;13.00;;;;;;;;;;5029978;28;20021;-78
2022/10/11 04:09:47;;;;;;;28.58;13.75;;;;;;;;;;5011618;28;20566;-77
2022/10/11 04:12:12;;;;;;;26.40;13.88;;;;;;;;;;5029630;28;20526;-78
2022/10/11 04:14:39;;;;;;;29.25;13.82;;;;;;;;;;5029771;28;20048;-78
2022/10/11 04:17:05;;;;;;;26.00;14.70;;;;;;;;;;5012674;28;20048;-79
2022/10/11 04:19:30;;;;;;;26.85;13.75;;;;;;;;;;5029480;28;20057;-78
2022/10/11 04:21:56;;;;;;;25.77;14.10;;;;;;;;;;5011762;28;20516;-78
2022/10/11 04:24:21;;;;;;;28.20;13.88;;;;;;;;;;5009193;28;20026;-77
2022/10/11 04:26:47;;;;;;;23.45;13.70;;;;;;;;;;4991925;28;20029;-78
2022/10/11 04:29:12;;;;;;;32.47;15.85;;;;;;;;;;4992331;28;20057;-78
2022/10/11 04:31:39;;;;;;;36.03;14.82;;;;;;;;;;5009718;28;20121;-78
2022/10/11 04:34:04;;;;;;;24.10;13.15;;;;;;;;;;4991870;28;20017;-79
2022/10/11 04:36:31;;;;;;;24.73;13.75;;;;;;;;;;5009369;28;20344;-79
2022/10/11 04:38:57;;;;;;;30.52;13.32;;;;;;;;;;5009900;28;20057;-77
2022/10/11 04:41:23;;;;;;;21.90;12.52;;;;;;;;;;5009878;28;20076;-78
2022/10/11 04:43:48;;;;;;;29.00;14.30;;;;;;;;;;4991126;28;20029;-78
2022/10/11 04:46:14;;;;;;;25.48;13.98;;;;;;;;;;4991681;28;20509;-79
2022/10/11 04:48:39;;;;;;;25.63;13.23;;;;;;;;;;4991489;28;20034;-78
2022/10/11 04:51:05;;;;;;;23.95;12.57;;;;;;;;;;4991464;28;20571;-78
2022/10/11 04:53:30;;;;;;;23.40;13.07;;;;;;;;;;4991311;28;20537;-78
2022/10/11 04:56:03;;;;;;;24.13;13.80;;;;;;;;;;4991752;28;20033;-79
2022/10/11 04:58:30;;;;;;;23.30;12.15;;;;;;;;;;4991430;28;20037;-78
2022/10/11 05:00:56;;;;;;;22.42;12.45;;;;;;;;;;4992086;28;20106;-79
2022/10/11 05:03:22;;;;;;;24.00;12.32;;;;;;;;;;4991929;28;20033;-79
2022/10/11 05:05:49;;;;;;;28.52;14.23;;;;;;;;;;5009653;28;20034;-78
2022/10/11 05:08:15;;;;;;;22.42;12.40;;;;;;;;;;4992004;28;20706;-78
2022/10/11 05:10:40;;;;;;;23.02;12.80;;;;;;;;;;5009333;28;20034;-78
2022/10/11 05:13:06;;;;;;;22.38;12.15;;;;;;;;;;5009334;28;20026;-78
2022/10/11 05:15:32;;;;;;;22.17;13.70;;;;;;;;;;5014538;28;20017;-78
2022/10/11 05:17:58;;;;;;;22.08;12.25;;;;;;;;;;5007162;28;20033;-77
2022/10/11 05:20:24;;;;;;;19.48;11.95;;;;;;;;;;5017635;28;20033;-78
2022/10/11 05:22:50;;;;;;;22.58;12.98;;;;;;;;;;5012446;28;20069;-79
2022/10/11 05:25:15;;;;;;;18.63;11.82;;;;;;;;;;5020736;28;20028;-78
2022/10/11 05:27:41;;;;;;;23.10;13.88;;;;;;;;;;5008340;28;20092;-79
2022/10/11 05:30:08;;;;;;;25.70;14.88;;;;;;;;;;4993525;28;20029;-79
2022/10/11 05:32:34;;;;;;;28.80;15.00;;;;;;;;;;5008022;28;20040;-80
2022/10/11 05:34:59;;;;;;;22.15;13.93;;;;;;;;;;5009393;28;20446;-79
2022/10/11 05:37:25;;;;;;;27.67;14.63;;;;;;;;;;5021611;28;20469;-79
2022/10/11 05:39:52;;;;;;;30.48;15.02;;;;;;;;;;5008422;28;20030;-79
2022/10/11 05:42:21;;;;;;;21.08;12.98;;;;;;;;;;5008327;28;20504;-77
2022/10/11 05:44:47;;;;;;;27.48;12.45;;;;;;;;;;5007519;28;20037;-79
2022/10/11 05:47:13;;;;;;;23.30;12.88;;;;;;;;;;5028460;28;20327;-80
2022/10/11 05:49:38;;;;;;;22.98;12.00;;;;;;;;;;4997734;28;20536;-79
2022/10/11 05:52:07;;;;;;;20.52;12.10;;;;;;;;;;5001920;28;20045;-77
2022/10/11 05:54:35;;;;;;;22.08;13.38;;;;;;;;;;5025702;28;20029;-78
2022/10/11 05:57:02;;;;;;;22.42;13.18;;;;;;;;;;4998728;28;20496;-78
2022/10/11 05:59:27;;;;;;;23.17;11.65;;;;;;;;;;5014604;28;20080;-80
2022/10/11 06:01:53;;;;;;;24.48;13.57;;;;;;;;;;4994884;28;20494;-78
2022/10/11 06:04:18;;;;;;;27.55;13.65;;;;;;;;;;4992582;28;20505;-80
2022/10/11 06:06:48;;;;;;;29.23;14.48;;;;;;;;;;5016466;28;20057;-79
2022/10/11 06:09:13;;;;;;;22.10;12.90;;;;;;;;;;4991280;28;20923;-75
2022/10/11 06:11:40;;;;;;;21.70;12.55;;;;;;;;;;4995223;28;20033;-77
2022/10/11 06:14:08;;;;;;;25.60;12.52;;;;;;;;;;4999317;28;20044;-79
2022/10/11 06:16:33;;;;;;;30.42;16.85;;;;;;;;;;4995872;28;20095;-79
2022/10/11 06:18:59;;;;;;;24.90;12.68;;;;;;;;;;4995538;28;20033;-77
2022/10/11 06:21:24;;;;;;;21.67;12.10;;;;;;;;;;5015018;28;20036;-77
2022/10/11 06:23:53;;;;;;;20.85;12.40;;;;;;;;;;5011653;28;20029;-75
2022/10/11 06:26:20;;;;;;;24.15;12.82;;;;;;;;;;5014423;28;20096;-76
2022/10/11 06:28:47;;;;;;;32.60;17.08;;;;;;;;;;4997493;28;20084;-75
2022/10/11 06:31:13;;;;;;;25.40;14.75;;;;;;;;;;5000392;28;20038;-75
2022/10/11 06:33:39;;;;;;;35.78;13.32;;;;;;;;;;5013802;28;20049;-79
2022/10/11 06:36:12;;;;;;;22.40;14.27;;;;;;;;;;4995337;28;20033;-76
2022/10/11 06:38:38;;;;;;;30.45;17.90;;;;;;;;;;5008471;28;20064;-76
2022/10/11 06:41:15;;;;;;;25.58;13.43;;;;;;;;;;4994003;28;20394;-75
2022/10/11 06:43:41;;;;;;;19.33;11.90;;;;;;;;;;4990237;28;20068;-74
2022/10/11 06:46:07;;;;;;;26.52;12.90;;;;;;;;;;5006862;28;20671;-77
2022/10/11 06:48:33;;;;;;;21.65;12.90;;;;;;;;;;4970359;28;20766;-79
2022/10/11 06:50:59;;;;;;;23.20;12.88;;;;;;;;;;4990702;28;20058;-78
2022/10/11 06:53:43;;;;;;;26.58;13.05;;;;;;;;;;4992222;28;20490;-73
2022/10/11 06:56:11;;;;;;;21.77;12.35;;;;;;;;;;4996258;28;20129;-78
2022/10/11 06:58:37;;;;;;;22.23;12.55;;;;;;;;;;4991342;28;20052;-77
2022/10/11 07:01:08;;;;;;;20.45;11.40;;;;;;;;;;4994669;28;20030;-78
2022/10/11 07:03:34;;;;;;;20.85;11.15;;;;;;;;;;5011283;28;20042;-77
2022/10/11 07:06:07;;;;;;;24.73;12.90;;;;;;;;;;5009954;28;20136;-76
2022/10/11 07:08:33;;;;;;;21.15;12.82;;;;;;;;;;4972164;28;20470;-80
2022/10/11 07:11:03;;;;;;;21.38;11.55;;;;;;;;;;4989899;28;20030;-76
2022/10/11 07:13:29;;;;;;;23.67;12.48;;;;;;;;;;4990810;28;20481;-78
2022/10/11 07:15:55;;;;;;;20.83;12.52;;;;;;;;;;4973228;28;20102;-76
2022/10/11 07:18:22;;;;;;;22.60;13.13;;;;;;;;;;5008013;28;20045;-78
2022/10/11 07:20:48;;;;;;;27.70;12.90;;;;;;;;;;4992962;28;20044;-77
2022/10/11 07:23:14;;;;;;;21.77;12.05;;;;;;;;;;5011402;28;20864;-78
2022/10/11 07:25:39;;;;;;;24.42;12.48;;;;;;;;;;4988060;28;20033;-76
2022/10/11 07:28:05;;;;;;;21.58;11.98;;;;;;;;;;4987841;28;20037;-77
2022/10/11 07:30:30;;;;;;;20.30;11.98;;;;;;;;;;4983366;28;20044;-75
2022/10/11 07:32:56;;;;;;;25.65;12.95;;;;;;;;;;5011551;28;20030;-77
2022/10/11 07:35:23;;;;;;;23.63;12.57;;;;;;;;;;5006413;28;20390;-79
2022/10/11 07:37:48;;;;;;;24.60;13.30;;;;;;;;;;5005859;28;20431;-77
2022/10/11 07:40:14;;;;;;;24.52;14.48;;;;;;;;;;5009336;28;20033;-77
2022/10/11 07:42:39;;;;;;;23.38;13.65;;;;;;;;;;5009142;28;20076;-74
2022/10/11 07:45:05;;;;;;;21.90;13.02;;;;;;;;;;4995354;28;20151;-74
2022/10/11 07:47:31;;;;;;;17.92;12.43;;;;;;;;;;4988861;28;20445;-74
2022/10/11 07:49:56;;;;;;;22.27;12.20;;;;;;;;;;4988578;28;20021;-73
2022/10/11 07:52:21;;;;;;;25.00;12.25;;;;;;;;;;5013327;28;20046;-75
2022/10/11 07:54:48;;;;;;;23.73;13.68;;;;;;;;;;5010505;28;20147;-76
2022/10/11 07:57:14;;;;;;;29.73;15.77;;;;;;;;;;5010677;28;20038;-74
2022/10/11 07:59:40;;;;;;;22.65;12.93;;;;;;;;;;5007824;28;20169;-74
2022/10/11 08:02:13;;;;;;;22.92;13.25;;;;;;;;;;4990918;28;20033;-74
2022/10/11 08:04:38;;;;;;;21.92;14.23;;;;;;;;;;4980001;28;20037;-74
2022/10/11 08:07:05;;;;;;;24.52;12.93;;;;;;;;;;4989249;28;20398;-74
2022/10/11 08:09:30;;;;;;;27.25;13.07;;;;;;;;;;5006909;28;20454;-73
2022/10/11 08:11:56;;;;;;;27.38;14.02;;;;;;;;;;4991266;28;20029;-73
2022/10/11 08:14:21;;;;;;;33.28;18.83;;;;;;;;;;4992887;28;20049;-73
2022/10/11 08:16:47;;;;;;;27.92;13.70;;;;;;;;;;5004698;28;20053;-74
2022/10/11 08:19:15;;;;;;;23.55;13.40;;;;;;;;;;4987193;28;20069;-75
2022/10/11 08:21:41;;;;;;;32.42;14.60;;;;;;;;;;4964575;28;20148;-76
2022/10/11 08:24:07;;;;;;;22.88;13.95;;;;;;;;;;5003775;28;20026;-73
2022/10/11 08:26:33;;;;;;;28.95;13.32;;;;;;;;;;5010970;28;20107;-76
2022/10/11 08:29:03;;;;;;;29.58;13.75;;;;;;;;;;5001771;28;20037;-74
2022/10/11 08:31:30;;;;;;;25.13;12.15;;;;;;;;;;4994210;28;20025;-74
2022/10/11 08:33:55;;;;;;;21.27;13.38;;;;;;;;;;5014859;28;20033;-74
2022/10/11 08:36:21;;;;;;;30.27;13.27;;;;;;;;;;5001626;28;20087;-74
2022/10/11 08:38:47;;;;;;;26.35;12.52;;;;;;;;;;5001778;28;20066;-75
2022/10/11 08:41:25;;;;;;;20.30;11.68;;;;;;;;;;5001858;28;20029;-74
2022/10/11 08:43:59;;;;;;;21.83;12.25;;;;;;;;;;5004098;28;20038;-75
2022/10/11 08:46:29;;;;;;;22.20;12.52;;;;;;;;;;5021008;28;20104;-74
2022/10/11 08:48:56;;;;;;;25.67;11.80;;;;;;;;;;4994462;28;20025;-74
2022/10/11 08:51:31;;;;;;;26.13;11.75;;;;;;;;;;4994815;28;20730;-75
2022/10/11 08:54:16;;;;;;;24.83;11.15;;;;;;;;;;5011506;28;20363;-74
2022/10/11 08:56:44;;;;;;;22.42;12.82;;;;;;;;;;5012380;28;20030;-75
2022/10/11 08:59:13;;;;;;;27.38;14.75;;;;;;;;;;4999352;28;20116;-73
2022/10/11 09:01:46;;;;;;;19.20;11.00;;;;;;;;;;4995193;28;20045;-73
2022/10/11 09:04:14;;;;;;;35.53;11.43;;;;;;;;;;5017528;28;20095;-74
2022/10/11 09:06:59;;;;;;;23.05;11.90;;;;;;;;;;4985674;28;20785;-74
2022/10/11 09:10:06;;;;;;;22.25;10.40;;;;;;;;;;4984372;28;20026;-74
2022/10/11 09:12:48;;;;;;;18.50;9.52;;;;;;;;;;4989190;28;20029;-77
2022/10/11 09:15:49;;;;;;;20.92;9.38;;;;;;;;;;4989364;28;20041;-79
2022/10/11 09:18:38;;;;;;;16.73;8.98;;;;;;;;;;4967136;28;20175;-75
2022/10/11 09:21:15;;;;;;;21.17;9.10;;;;;;;;;;4954062;28;20065;-76
2022/10/11 09:24:02;;;;;;;16.65;8.82;;;;;;;;;;5008371;28;20034;-77
2022/10/11 09:26:43;;;;;;;23.65;9.93;;;;;;;;;;4992863;28;20032;-76
2022/10/11 09:29:39;;;;;;;21.50;9.27;;;;;;;;;;4989146;28;20128;-77
2022/10/11 09:32:14;;;;;;;17.75;8.63;;;;;;;;;;4999851;28;20034;-74
2022/10/11 09:34:40;;;;;;;16.70;7.68;;;;;;;;;;4990896;28;20148;-77
2022/10/11 09:37:53;;;;;;;21.88;8.98;;;;;;;;;;4993464;28;20029;-76
2022/10/11 09:40:50;;;;;;;14.63;7.68;;;;;;;;;;4927607;28;20043;-76
2022/10/11 09:43:17;;;;;;;19.02;7.93;;;;;;;;;;5007668;28;20510;-77
2022/10/11 09:45:45;;;;;;;21.98;9.02;;;;;;;;;;4991325;28;20219;-78
2022/10/11 09:48:19;;;;;;;21.15;8.15;;;;;;;;;;4978497;28;20033;-79
2022/10/11 09:50:45;;;;;;;16.17;6.30;;;;;;;;;;4992275;28;20076;-78
2022/10/11 09:53:49;;;;;;;16.40;5.88;;;;;;;;;;4994807;28;20021;-77
2022/10/11 09:56:15;;;;;;;12.45;5.20;;;;;;;;;;5011161;28;20037;-77
2022/10/11 09:58:42;;;;;;;17.58;6.93;;;;;;;;;;5007315;28;20060;-80
2022/10/11 10:01:20;;;;;;;18.40;6.22;;;;;;;;;;4972032;28;20676;-78
2022/10/11 10:03:46;;;;;;;11.95;5.00;;;;;;;;;;5004979;28;20066;-79
2022/10/11 10:06:17;;;;;;;12.50;5.28;;;;;;;;;;4992213;28;20034;-75
2022/10/11 10:09:11;;;;;;;14.10;4.70;;;;;;;;;;4991790;28;20340;-77
2022/10/11 10:11:37;;;;;;;13.52;5.15;;;;;;;;;;5005932;28;20030;-78
2022/10/11 10:14:03;;;;;;;25.40;11.40;;;;;;;;;;4995258;28;20034;-77
2022/10/11 10:16:31;;;;;;;13.48;4.82;;;;;;;;;;4994947;28;20041;-80
2022/10/11 10:19:03;;;;;;;13.30;5.45;;;;;;;;;;5011526;28;20530;-77
2022/10/11 10:21:43;;;;;;;12.98;5.43;;;;;;;;;;4984820;28;20154;-76
2022/10/11 10:24:27;;;;;;;17.27;5.32;;;;;;;;;;4999084;28;20041;-75
2022/10/11 10:27:17;;;;;;;16.90;5.57;;;;;;;;;;5020888;28;20094;-76
2022/10/11 10:30:00;;;;;;;12.95;4.85;;;;;;;;;;4995091;28;20144;-77
2022/10/11 10:32:34;;;;;;;15.60;6.15;;;;;;;;;;4990565;28;20156;-77
2022/10/11 10:35:15;;;;;;;13.38;4.70;;;;;;;;;;5014389;28;20450;-76
2022/10/11 10:37:47;;;;;;;14.07;5.07;;;;;;;;;;5009822;28;20654;-77
2022/10/11 10:40:26;;;;;;;20.70;5.28;;;;;;;;;;4995230;28;20041;-77
2022/10/11 10:42:53;;;;;;;16.55;7.28;;;;;;;;;;4988565;28;20608;-74
2022/10/11 10:45:27;;;;;;;18.17;4.78;;;;;;;;;;5010085;28;21084;-77
2022/10/11 10:47:55;;;;;;;10.50;4.00;;;;;;;;;;5010254;28;20048;-76
2022/10/11 10:50:30;;;;;;;14.55;5.38;;;;;;;;;;4988766;28;20034;-75
2022/10/11 10:53:02;;;;;;;15.88;5.32;;;;;;;;;;4985713;28;20655;-75
2022/10/11 10:55:37;;;;;;;18.08;5.10;;;;;;;;;;5001865;28;20033;-78
2022/10/11 10:58:48;;;;;;;10.95;4.90;;;;;;;;;;5008618;28;20869;-79
2022/10/11 11:01:25;;;;;;;15.43;5.07;;;;;;;;;;4940096;28;20050;-75
2022/10/11 11:03:59;;;;;;;11.45;3.80;;;;;;;;;;5010163;28;20049;-77
2022/10/11 11:06:43;;;;;;;10.48;4.13;;;;;;;;;;4990547;28;20029;-76
2022/10/11 11:09:29;;;;;;;19.08;4.57;;;;;;;;;;4994847;28;20033;-75
2022/10/11 11:12:24;;;;;;;29.38;12.88;;;;;;;;;;4991755;28;20029;-78
2022/10/11 11:15:10;;;;;;;11.65;4.40;;;;;;;;;;4995120;28;20044;-78
2022/10/11 11:18:10;;;;;;;15.25;5.07;;;;;;;;;;4993116;28;20108;-76
2022/10/11 11:20:57;;;;;;;11.68;3.70;;;;;;;;;;4989583;28;20227;-77
2022/10/11 11:23:59;;;;;;;8.32;4.40;;;;;;;;;;4997592;28;20072;-74
2022/10/11 11:26:53;;;;;;;7.18;3.67;;;;;;;;;;4993706;28;20029;-76
2022/10/11 11:29:34;;;;;;;15.82;4.82;;;;;;;;;;4986156;28;20034;-74
2022/10/11 11:32:33;;;;;;;19.08;5.57;;;;;;;;;;4986106;28;20124;-75
2022/10/11 11:35:10;;;;;;;11.25;4.47;;;;;;;;;;5012737;28;20152;-75
2022/10/11 11:37:43;;;;;;;16.23;3.85;;;;;;;;;;4991229;28;20033;-76
2022/10/11 11:40:18;;;;;;;10.02;4.45;;;;;;;;;;4976550;28;20484;-75
2022/10/11 11:42:54;;;;;;;10.88;4.05;;;;;;;;;;4984434;28;20533;-77
2022/10/11 11:45:37;;;;;;;11.98;5.53;;;;;;;;;;4990269;28;20030;-73
2022/10/11 11:48:18;;;;;;;23.88;10.45;;;;;;;;;;4990153;28;20050;-78
2022/10/11 11:50:52;;;;;;;13.50;5.68;;;;;;;;;;4987715;28;20053;-78
2022/10/11 11:53:34;;;;;;;8.90;3.80;;;;;;;;;;4979935;28;20104;-76
2022/10/11 11:56:12;;;;;;;12.00;5.18;;;;;;;;;;4989605;28;20545;-78
2022/10/11 11:59:02;;;;;;;11.68;4.55;;;;;;;;;;4990280;28;20077;-74
2022/10/11 12:02:01;;;;;;;15.57;4.85;;;;;;;;;;4985562;28;20029;-76
2022/10/11 12:04:41;;;;;;;7.63;4.38;;;;;;;;;;4955123;28;21073;-74
2022/10/11 12:07:10;;;;;;;16.42;7.95;;;;;;;;;;5005652;28;20041;-76
2022/10/11 12:09:37;;;;;;;22.10;5.68;;;;;;;;;;4988428;28;20064;-74
2022/10/11 12:12:06;;;;;;;9.70;4.30;;;;;;;;;;4990598;28;20091;-76
2022/10/11 12:14:39;;;;;;;13.05;3.85;;;;;;;;;;4990559;28;20113;-77
2022/10/11 12:17:18;;;;;;;17.00;5.68;;;;;;;;;;4992548;28;20115;-77
2022/10/11 12:20:05;;;;;;;10.32;3.33;;;;;;;;;;4987915;28;20499;-76
2022/10/11 12:22:57;;;;;;;13.88;3.92;;;;;;;;;;4974446;28;20045;-75
2022/10/11 12:25:32;;;;;;;9.18;3.60;;;;;;;;;;4984615;28;20038;-72
2022/10/11 12:28:03;;;;;;;18.13;4.82;;;;;;;;;;5001343;28;20303;-73
2022/10/11 12:30:47;;;;;;;10.82;3.28;;;;;;;;;;5000860;28;20255;-78
2022/10/11 12:33:20;;;;;;;8.32;3.13;;;;;;;;;;4987903;28;20474;-75
2022/10/11 12:35:54;;;;;;;14.48;4.47;;;;;;;;;;4986894;28;20040;-75
2022/10/11 12:38:40;;;;;;;14.65;4.78;;;;;;;;;;5002391;28;20162;-75
2022/10/11 12:41:09;;;;;;;10.52;3.33;;;;;;;;;;4984119;28;20061;-79
2022/10/11 12:43:47;;;;;;;8.10;2.80;;;;;;;;;;5006933;28;20446;-76
2022/10/11 12:46:29;;;;;;;10.90;3.53;;;;;;;;;;5006337;28;20069;-79
2022/10/11 12:49:14;;;;;;;7.53;3.33;;;;;;;;;;4990531;28;20096;-75
2022/10/11 12:52:05;;;;;;;10.30;2.83;;;;;;;;;;4983770;28;20541;-75
2022/10/11 12:54:37;;;;;;;13.18;3.10;;;;;;;;;;4987960;28;20034;-77
2022/10/11 12:57:24;;;;;;;15.80;2.88;;;;;;;;;;4985832;28;20033;-76
2022/10/11 12:59:52;;;;;;;9.32;3.58;;;;;;;;;;4996400;28;20179;-79
2022/10/11 13:02:41;;;;;;;14.95;3.70;;;;;;;;;;4990023;28;20032;-78
2022/10/11 13:05:29;;;;;;;10.63;3.00;;;;;;;;;;4990490;28;20025;-79
2022/10/11 13:07:57;;;;;;;7.85;3.33;;;;;;;;;;5010524;28;20040;-77
2022/10/11 13:10:34;;;;;;;10.02;3.35;;;;;;;;;;4993288;28;20030;-77
2022/10/11 13:13:03;;;;;;;29.48;4.10;;;;;;;;;;4989994;28;20029;-79
2022/10/11 13:15:30;;;;;;;9.85;2.78;;;;;;;;;;4992160;28;20164;-76
2022/10/11 13:18:00;;;;;;;11.52;4.15;;;;;;;;;;4982314;28;20073;-78
2022/10/11 13:20:33;;;;;;;11.27;4.10;;;;;;;;;;5010225;28;20114;-78
2022/10/11 13:22:59;;;;;;;13.70;3.65;;;;;;;;;;4990529;28;20144;-75
2022/10/11 13:25:35;;;;;;;8.70;2.85;;;;;;;;;;4999507;28;20115;-74
2022/10/11 13:28:01;;;;;;;13.30;3.33;;;;;;;;;;5030481;28;20108;-76
2022/10/11 13:30:33;;;;;;;10.57;2.42;;;;;;;;;;5004815;28;20741;-78
2022/10/11 13:33:09;;;;;;;10.40;3.33;;;;;;;;;;4997168;28;20030;-76
2022/10/11 13:35:37;;;;;;;12.75;3.50;;;;;;;;;;5001376;28;20117;-77
2022/10/11 13:38:07;;;;;;;6.28;2.38;;;;;;;;;;5017606;28;20045;-76
2022/10/11 13:40:34;;;;;;;8.50;2.80;;;;;;;;;;4994041;28;20178;-75
2022/10/11 13:43:01;;;;;;;11.27;3.08;;;;;;;;;;5002415;28;20043;-77
2022/10/11 13:45:34;;;;;;;9.02;2.17;;;;;;;;;;4999602;28;20030;-75
2022/10/11 13:48:03;;;;;;;8.60;2.58;;;;;;;;;;5015953;28;20107;-79
2022/10/11 13:50:33;;;;;;;13.85;3.97;;;;;;;;;;4996789;28;20175;-78
2022/10/11 13:53:14;;;;;;;7.15;2.42;;;;;;;;;;4999144;28;20043;-76
2022/10/11 13:55:55;;;;;;;13.07;3.57;;;;;;;;;;4992283;28;20102;-75
2022/10/11 13:58:27;;;;;;;12.93;2.35;;;;;;;;;;5016303;28;20505;-76
2022/10/11 14:00:56;;;;;;;14.77;3.05;;;;;;;;;;5009637;28;20045;-76
2022/10/11 14:03:25;;;;;;;9.98;2.47;;;;;;;;;;4996530;28;20026;-77
2022/10/11 14:05:55;;;;;;;11.30;2.60;;;;;;;;;;4996010;28;20055;-76
2022/10/11 14:08:46;;;;;;;15.07;3.85;;;;;;;;;;5015862;28;20041;-77
2022/10/11 14:11:13;;;;;;;7.13;2.38;;;;;;;;;;5017340;28;20029;-75
2022/10/11 14:13:48;;;;;;;8.10;2.92;;;;;;;;;;5014434;28;20537;-77
2022/10/11 14:16:18;;;;;;;6.13;2.55;;;;;;;;;;5018674;28;20113;-78
2022/10/11 14:19:01;;;;;;;11.18;3.20;;;;;;;;;;5019454;28;20048;-78
2022/10/11 14:21:56;;;;;;;11.43;2.95;;;;;;;;;;4985515;28;20049;-78
2022/10/11 14:24:22;;;;;;;20.67;8.27;;;;;;;;;;4979946;28;20164;-77
2022/10/11 14:26:50;;;;;;;10.88;2.65;;;;;;;;;;5004527;28;20152;-77
2022/10/11 14:29:32;;;;;;;9.90;3.50;;;;;;;;;;5003098;28;20457;-76
2022/10/11 14:32:03;;;;;;;11.07;3.33;;;;;;;;;;4996969;28;20053;-77
2022/10/11 14:34:31;;;;;;;7.90;2.60;;;;;;;;;;4986466;28;20044;-78
2022/10/11 14:36:56;;;;;;;16.70;3.45;;;;;;;;;;5026391;28;20037;-74
2022/10/11 14:39:26;;;;;;;14.55;3.30;;;;;;;;;;5001384;28;20040;-77
2022/10/11 14:41:52;;;;;;;9.35;2.80;;;;;;;;;;4988394;28;20038;-78
2022/10/11 14:44:21;;;;;;;10.70;3.22;;;;;;;;;;4990853;28;20129;-79
2022/10/11 14:46:50;;;;;;;14.30;3.05;;;;;;;;;;5018996;28;20547;-78
2022/10/11 14:49:17;;;;;;;15.00;4.20;;;;;;;;;;4997518;28;20123;-79
2022/10/11 14:51:44;;;;;;;10.90;3.55;;;;;;;;;;5023222;28;20049;-78
2022/10/11 14:54:12;;;;;;;12.25;3.63;;;;;;;;;;5005484;28;20126;-79